createdAt,value
2023-04-15T00:00:58.310Z,16.75
2023-04-15T00:03:26.047Z,17.58
2023-04-15T00:05:53.804Z,16.08
2023-04-15T00:08:21.108Z,14.65
2023-04-15T00:10:49.365Z,16.88
2023-04-15T00:13:16.916Z,14.68
2023-04-15T00:15:44.619Z,14.27
2023-04-15T00:18:11.925Z,19.00
2023-04-15T00:20:39.578Z,14.63
2023-04-15T00:23:07.657Z,16.67
2023-04-15T00:25:35.232Z,15.25
2023-04-15T00:28:02.632Z,11.75
2023-04-15T00:30:30.320Z,13.75
2023-04-15T00:32:57.678Z,16.40
2023-04-15T00:35:25.477Z,13.65
2023-04-15T00:37:52.750Z,16.00
2023-04-15T00:40:21.573Z,15.15
2023-04-15T00:42:48.861Z,15.20
2023-04-15T00:45:16.927Z,13.80
2023-04-15T00:47:44.590Z,20.42
2023-04-15T00:50:12.866Z,16.33
2023-04-15T00:52:40.883Z,14.63
2023-04-15T00:55:08.880Z,15.05
2023-04-15T00:57:36.480Z,14.77
2023-04-15T01:00:05.698Z,14.32
2023-04-15T01:02:33.507Z,13.98
2023-04-15T01:05:01.577Z,10.93
2023-04-15T01:07:28.876Z,14.00
2023-04-15T01:09:56.853Z,14.10
2023-04-15T01:12:25.401Z,13.50
2023-04-15T01:14:54.197Z,15.38
2023-04-15T01:17:21.773Z,14.13
2023-04-15T01:19:49.480Z,15.18
2023-04-15T01:22:16.961Z,14.65
2023-04-15T01:24:56.971Z,13.23
2023-04-15T01:27:24.791Z,14.77
2023-04-15T01:29:52.784Z,12.70
2023-04-15T01:32:20.328Z,12.52
2023-04-15T01:34:48.180Z,15.60
2023-04-15T01:37:15.496Z,13.30
2023-04-15T01:39:43.078Z,13.50
2023-04-15T01:42:10.353Z,16.80
2023-04-15T01:44:37.918Z,12.60
2023-04-15T01:47:05.616Z,13.80
2023-04-15T01:49:33.308Z,15.75
2023-04-15T01:52:00.621Z,12.75
2023-04-15T01:54:28.452Z,16.10
2023-04-15T01:56:56.786Z,13.88
2023-04-15T01:59:24.360Z,16.25
2023-04-15T02:01:52.324Z,13.85
2023-04-15T02:04:19.899Z,13.27
2023-04-15T02:06:47.282Z,13.15
2023-04-15T02:09:14.845Z,17.25
2023-04-15T02:11:42.109Z,12.43
2023-04-15T02:14:10.106Z,13.27
2023-04-15T02:16:37.432Z,19.02
2023-04-15T02:19:05.021Z,12.82
2023-04-15T02:21:32.326Z,14.63
2023-04-15T02:23:59.977Z,13.55
2023-04-15T02:26:27.416Z,13.68
2023-04-15T02:28:55.696Z,14.73
2023-04-15T02:31:23.007Z,11.95
2023-04-15T02:33:51.012Z,12.82
2023-04-15T02:36:18.401Z,14.43
2023-04-15T02:38:46.119Z,13.30
2023-04-15T02:41:13.723Z,16.80
2023-04-15T02:43:41.341Z,12.45
2023-04-15T02:46:08.686Z,11.70
2023-04-15T02:48:36.851Z,16.23
2023-04-15T02:51:18.324Z,14.68
2023-04-15T02:53:46.437Z,10.77
2023-04-15T02:56:15.266Z,14.35
2023-04-15T02:58:42.953Z,13.35
2023-04-15T03:01:10.309Z,15.25
2023-04-15T03:03:38.024Z,13.27
2023-04-15T03:06:05.482Z,13.13
2023-04-15T03:08:33.411Z,11.80
2023-04-15T03:11:02.465Z,12.35
2023-04-15T03:13:30.056Z,14.43
2023-04-15T03:15:57.345Z,13.85
2023-04-15T03:18:24.955Z,12.63
2023-04-15T03:20:52.261Z,12.35
2023-04-15T03:23:19.869Z,15.23
2023-04-15T03:25:47.201Z,13.80
2023-04-15T03:28:14.759Z,16.13
2023-04-15T03:30:42.046Z,16.50
2023-04-15T03:33:09.684Z,13.50
2023-04-15T03:35:36.988Z,12.93
2023-04-15T03:38:04.794Z,13.73
2023-04-15T03:40:32.048Z,13.70
2023-04-15T03:42:59.623Z,12.30
2023-04-15T03:45:26.900Z,12.65
2023-04-15T03:47:54.537Z,18.48
2023-04-15T03:50:21.889Z,11.57
2023-04-15T03:52:50.728Z,12.00
2023-04-15T03:55:18.626Z,15.18
2023-04-15T03:57:46.463Z,10.98
2023-04-15T04:00:13.862Z,14.15
2023-04-15T04:02:41.672Z,13.25
2023-04-15T04:05:09.453Z,14.50
2023-04-15T04:07:37.027Z,17.23
2023-04-15T04:10:05.113Z,14.45
2023-04-15T04:12:32.791Z,14.13
2023-04-15T04:15:00.071Z,12.50
2023-04-15T04:17:27.722Z,15.70
2023-04-15T04:19:55.004Z,11.73
2023-04-15T04:22:24.187Z,11.55
2023-04-15T04:24:51.499Z,14.30
2023-04-15T04:27:19.042Z,17.92
2023-04-15T04:29:47.778Z,13.45
2023-04-15T04:32:15.488Z,13.90
2023-04-15T04:34:42.794Z,13.63
2023-04-15T04:37:10.417Z,13.60
2023-04-15T04:39:37.675Z,17.05
2023-04-15T04:42:05.235Z,13.93
2023-04-15T04:44:32.562Z,19.00
2023-04-15T04:47:00.312Z,14.60
2023-04-15T04:49:27.626Z,12.43
2023-04-15T04:51:55.432Z,16.20
2023-04-15T04:54:23.652Z,13.93
2023-04-15T04:56:51.500Z,17.10
2023-04-15T04:59:19.479Z,15.35
2023-04-15T05:01:47.596Z,14.35
2023-04-15T05:04:15.273Z,14.35
2023-04-15T05:06:42.934Z,14.13
2023-04-15T05:09:10.511Z,17.33
2023-04-15T05:11:38.127Z,15.80
2023-04-15T05:14:05.411Z,16.27
2023-04-15T05:16:32.938Z,15.93
2023-04-15T05:19:00.451Z,17.98
2023-04-15T05:21:28.272Z,17.98
2023-04-15T05:23:55.525Z,16.20
2023-04-15T05:26:24.268Z,14.55
2023-04-15T05:28:51.552Z,16.80
2023-04-15T05:31:19.122Z,13.77
2023-04-15T05:33:46.482Z,12.55
2023-04-15T05:36:14.038Z,15.18
2023-04-15T05:38:42.054Z,16.27
2023-04-15T05:41:09.787Z,13.30
2023-04-15T05:43:37.131Z,14.23
2023-04-15T05:46:04.762Z,15.38
2023-04-15T05:48:32.042Z,14.60
2023-04-15T05:50:59.935Z,11.88
2023-04-15T05:53:27.334Z,12.35
2023-04-15T05:55:54.920Z,15.05
2023-04-15T05:58:22.264Z,12.60
2023-04-15T06:00:49.903Z,15.10
2023-04-15T06:03:18.087Z,12.90
2023-04-15T06:05:45.724Z,13.65
2023-04-15T06:08:13.174Z,12.73
2023-04-15T06:10:40.835Z,14.00
2023-04-15T06:13:08.346Z,15.40
2023-04-15T06:15:36.023Z,12.02
2023-04-15T06:18:03.347Z,14.73
2023-04-15T06:20:31.036Z,11.20
2023-04-15T06:22:58.352Z,10.38
2023-04-15T06:25:26.125Z,11.43
2023-04-15T06:27:53.467Z,12.38
2023-04-15T06:30:22.315Z,13.48
2023-04-15T06:32:51.296Z,12.93
2023-04-15T06:35:19.006Z,13.23
2023-04-15T06:37:46.307Z,10.00
2023-04-15T06:40:14.208Z,11.20
2023-04-15T06:42:41.888Z,12.40
2023-04-15T06:45:09.737Z,16.45
2023-04-15T06:47:37.329Z,13.85
2023-04-15T06:50:05.116Z,12.68
2023-04-15T06:52:32.459Z,19.15
2023-04-15T06:55:00.009Z,13.35
2023-04-15T06:57:28.659Z,10.13
2023-04-15T06:59:56.509Z,10.43
2023-04-15T07:02:23.924Z,14.70
2023-04-15T07:04:51.565Z,10.15
2023-04-15T07:07:18.965Z,13.68
2023-04-15T07:09:46.603Z,10.82
2023-04-15T07:12:13.963Z,11.20
2023-04-15T07:14:41.535Z,15.23
2023-04-15T07:17:09.616Z,14.23
2023-04-15T07:19:37.396Z,17.48
2023-04-15T07:22:05.071Z,17.35
2023-04-15T07:24:32.640Z,11.75
2023-04-15T07:27:01.195Z,10.88
2023-04-15T07:29:29.086Z,11.77
2023-04-15T07:31:57.177Z,12.07
2023-04-15T07:34:25.023Z,10.48
2023-04-15T07:36:52.656Z,8.77
2023-04-15T07:39:20.267Z,10.68
2023-04-15T07:41:47.645Z,9.73
2023-04-15T07:44:15.692Z,9.45
2023-04-15T07:46:43.151Z,11.70
2023-04-15T07:49:10.755Z,11.15
2023-04-15T07:51:38.397Z,16.58
2023-04-15T07:54:06.305Z,7.47
2023-04-15T07:56:33.564Z,7.30
2023-04-15T07:59:02.848Z,9.32
2023-04-15T08:01:30.636Z,10.05
2023-04-15T08:03:58.832Z,7.95
2023-04-15T08:06:27.232Z,7.40
2023-04-15T08:08:55.300Z,7.90
2023-04-15T08:11:23.362Z,10.13
2023-04-15T08:13:51.011Z,8.57
2023-04-15T08:16:19.641Z,8.65
2023-04-15T08:18:48.624Z,13.50
2023-04-15T08:21:16.902Z,14.50
2023-04-15T08:23:44.740Z,9.75
2023-04-15T08:26:12.040Z,6.30
2023-04-15T08:28:40.469Z,8.32
2023-04-15T08:31:07.833Z,6.40
2023-04-15T08:33:35.449Z,11.00
2023-04-15T08:36:03.279Z,8.52
2023-04-15T08:38:30.864Z,7.38
2023-04-15T08:40:59.703Z,9.90
2023-04-15T08:43:33.180Z,9.40
2023-04-15T08:46:01.697Z,10.40
2023-04-15T08:48:40.632Z,18.35
2023-04-15T08:51:08.493Z,8.02
2023-04-15T08:53:36.317Z,8.18
2023-04-15T08:56:06.105Z,10.43
2023-04-15T08:58:34.341Z,8.65
2023-04-15T09:01:01.995Z,7.35
2023-04-15T09:03:29.814Z,13.05
2023-04-15T09:05:58.410Z,19.00
2023-04-15T09:08:26.033Z,10.82
2023-04-15T09:10:55.033Z,7.88
2023-04-15T09:13:22.867Z,10.15
2023-04-15T09:15:50.163Z,10.18
2023-04-15T09:18:47.046Z,12.07
2023-04-15T09:21:15.531Z,8.35
2023-04-15T09:23:54.863Z,8.25
2023-04-15T09:26:31.561Z,10.25
2023-04-15T09:29:14.792Z,7.22
2023-04-15T09:31:43.494Z,10.52
2023-04-15T09:34:11.154Z,13.45
2023-04-15T09:36:49.680Z,7.38
2023-04-15T09:39:18.321Z,7.72
2023-04-15T09:41:45.659Z,7.80
2023-04-15T09:44:25.985Z,7.93
2023-04-15T09:46:53.508Z,11.15
2023-04-15T09:49:21.250Z,10.48
2023-04-15T09:51:57.907Z,8.95
2023-04-15T09:54:35.815Z,9.40
2023-04-15T09:57:13.122Z,9.68
2023-04-15T09:59:40.889Z,10.00
2023-04-15T10:02:08.590Z,14.95
2023-04-15T10:04:37.494Z,7.43
2023-04-15T10:07:06.314Z,9.52
2023-04-15T10:09:34.784Z,9.18
2023-04-15T10:12:02.862Z,8.93
2023-04-15T10:14:33.328Z,9.63
2023-04-15T10:17:03.373Z,7.72
2023-04-15T10:19:32.407Z,6.60
2023-04-15T10:22:00.224Z,8.25
2023-04-15T10:24:28.058Z,6.20
2023-04-15T10:26:55.615Z,8.07
2023-04-15T10:29:25.953Z,8.68
2023-04-15T10:31:54.695Z,8.82
2023-04-15T10:34:23.646Z,7.47
2023-04-15T10:36:51.828Z,7.10
2023-04-15T10:39:34.811Z,7.47
2023-04-15T10:42:08.214Z,10.18
2023-04-15T10:44:39.708Z,7.50
2023-04-15T10:47:13.057Z,10.60
2023-04-15T10:49:45.225Z,6.50
2023-04-15T10:52:12.741Z,6.18
2023-04-15T10:54:40.355Z,7.68
2023-04-15T10:57:08.828Z,5.93
2023-04-15T10:59:59.194Z,6.55
2023-04-15T11:02:42.839Z,6.25
2023-04-15T11:05:11.477Z,6.88
2023-04-15T11:07:46.737Z,6.57
2023-04-15T11:10:14.313Z,10.50
2023-04-15T11:12:42.085Z,7.43
2023-04-15T11:15:31.835Z,8.43
2023-04-15T11:17:59.866Z,7.65
2023-04-15T11:20:27.752Z,11.73
2023-04-15T11:23:14.111Z,6.63
2023-04-15T11:25:43.809Z,7.85
2023-04-15T11:28:12.563Z,8.50
2023-04-15T11:30:40.685Z,8.75
2023-04-15T11:33:11.993Z,9.23
2023-04-15T11:35:41.006Z,8.13
2023-04-15T11:38:12.321Z,7.43
2023-04-15T11:40:40.932Z,5.90
2023-04-15T11:43:09.493Z,11.38
2023-04-15T11:45:38.232Z,7.30
2023-04-15T11:48:06.885Z,10.73
2023-04-15T11:50:35.208Z,7.97
2023-04-15T11:53:06.270Z,12.27
2023-04-15T11:55:46.906Z,7.78
2023-04-15T11:58:16.645Z,11.32
2023-04-15T12:00:54.694Z,9.20
2023-04-15T12:03:29.733Z,8.05
2023-04-15T12:06:16.795Z,12.88
2023-04-15T12:09:00.349Z,8.63
2023-04-15T12:11:31.303Z,9.63
2023-04-15T12:14:17.679Z,10.40
2023-04-15T12:16:48.288Z,8.45
2023-04-15T12:19:18.626Z,6.63
2023-04-15T12:21:48.068Z,5.82
2023-04-15T12:24:16.573Z,8.85
2023-04-15T12:26:45.792Z,6.47
2023-04-15T12:29:13.791Z,8.52
2023-04-15T12:32:08.016Z,8.18
2023-04-15T12:34:51.729Z,8.13
2023-04-15T12:37:19.873Z,10.10
2023-04-15T12:39:48.907Z,8.18
2023-04-15T12:42:17.479Z,7.43
2023-04-15T12:44:44.846Z,12.75
2023-04-15T12:47:13.076Z,7.78
2023-04-15T12:49:41.229Z,12.68
2023-04-15T12:52:09.226Z,10.45
2023-04-15T12:54:36.674Z,12.57
2023-04-15T12:57:06.882Z,20.67
2023-04-15T12:59:34.406Z,14.05
2023-04-15T13:02:02.874Z,10.20
2023-04-15T13:04:31.094Z,15.15
2023-04-15T13:06:59.238Z,8.25
2023-04-15T13:09:27.091Z,26.90
2023-04-15T13:11:54.901Z,23.42
2023-04-15T13:14:22.317Z,27.60
2023-04-15T13:16:49.879Z,16.77
2023-04-15T13:19:17.217Z,18.25
2023-04-15T13:21:44.852Z,15.35
2023-04-15T13:24:12.211Z,26.23
2023-04-15T13:26:39.829Z,14.20
2023-04-15T13:29:07.307Z,28.05
2023-04-15T13:31:34.966Z,14.30
2023-04-15T13:34:02.513Z,10.38
2023-04-15T13:36:30.714Z,15.45
2023-04-15T13:38:58.400Z,17.55
2023-04-15T13:41:26.209Z,13.55
2023-04-15T13:43:53.580Z,24.83
2023-04-15T13:46:21.311Z,20.92
2023-04-15T13:48:48.763Z,21.38
2023-04-15T13:51:16.393Z,15.00
2023-04-15T13:53:43.674Z,10.73
2023-04-15T13:56:11.349Z,18.42
2023-04-15T13:58:38.957Z,15.30
2023-04-15T14:01:07.259Z,10.77
2023-04-15T14:03:38.409Z,12.55
2023-04-15T14:06:06.775Z,11.73
2023-04-15T14:08:34.248Z,12.85
2023-04-15T14:11:02.009Z,11.57
2023-04-15T14:13:29.338Z,12.77
2023-04-15T14:15:57.730Z,13.50
2023-04-15T14:18:25.218Z,10.10
2023-04-15T14:20:52.844Z,8.98
2023-04-15T14:23:20.276Z,9.38
2023-04-15T14:25:48.482Z,10.55
2023-04-15T14:28:16.132Z,13.32
2023-04-15T14:30:43.915Z,9.88
2023-04-15T14:33:11.363Z,12.07
2023-04-15T14:35:39.592Z,10.30
2023-04-15T14:38:10.469Z,11.63
2023-04-15T14:40:38.199Z,8.57
2023-04-15T14:43:05.499Z,8.10
2023-04-15T14:45:33.180Z,7.50
2023-04-15T14:48:00.497Z,8.25
2023-04-15T14:50:28.266Z,8.25
2023-04-15T14:52:55.697Z,9.93
2023-04-15T14:55:23.319Z,8.63
2023-04-15T14:57:51.272Z,8.82
2023-04-15T15:00:19.084Z,11.27
2023-04-15T15:02:47.491Z,8.80
2023-04-15T15:05:16.093Z,8.05
2023-04-15T15:07:43.651Z,14.60
2023-04-15T15:10:11.268Z,11.80
2023-04-15T15:12:38.619Z,11.20
2023-04-15T15:15:15.766Z,7.25
2023-04-15T15:17:52.838Z,9.40
2023-04-15T15:20:20.681Z,9.13
2023-04-15T15:22:48.052Z,7.80
2023-04-15T15:25:15.999Z,10.07
2023-04-15T15:27:43.329Z,6.20
2023-04-15T15:30:11.291Z,7.93
2023-04-15T15:32:42.437Z,8.60
2023-04-15T15:35:10.904Z,6.25
2023-04-15T15:37:38.318Z,18.25
2023-04-15T15:40:06.720Z,17.83
2023-04-15T15:42:34.382Z,12.63
2023-04-15T15:45:03.790Z,19.42
2023-04-15T15:47:31.210Z,22.83
2023-04-15T15:49:58.903Z,17.08
2023-04-15T15:52:26.285Z,16.98
2023-04-15T15:54:54.060Z,21.77
2023-04-15T15:57:21.437Z,18.50
2023-04-15T15:59:50.058Z,20.00
2023-04-15T16:02:18.618Z,22.40
2023-04-15T16:04:46.489Z,18.65
2023-04-15T16:07:15.672Z,15.10
2023-04-15T16:09:43.720Z,10.13
2023-04-15T16:12:11.141Z,14.25
2023-04-15T16:14:39.700Z,7.95
2023-04-15T16:17:07.104Z,4.90
2023-04-15T16:19:34.666Z,6.25
2023-04-15T16:22:02.024Z,6.28
2023-04-15T16:24:30.193Z,9.20
2023-04-15T16:27:00.520Z,10.88
2023-04-15T16:29:28.099Z,15.30
2023-04-15T16:31:56.307Z,10.55
2023-04-15T16:34:24.029Z,11.43
2023-04-15T16:36:51.323Z,8.57
2023-04-15T16:39:19.790Z,7.32
2023-04-15T16:41:47.096Z,7.55
2023-04-15T16:44:15.063Z,7.03
2023-04-15T16:46:42.349Z,6.40
2023-04-15T16:49:10.245Z,9.50
2023-04-15T16:51:37.528Z,15.13
2023-04-15T16:54:05.149Z,10.60
2023-04-15T16:56:32.551Z,13.07
2023-04-15T16:59:00.235Z,12.07
2023-04-15T17:01:27.663Z,15.70
2023-04-15T17:03:56.212Z,11.82
2023-04-15T17:06:24.235Z,9.40
2023-04-15T17:08:52.073Z,8.88
2023-04-15T17:11:19.678Z,11.20
2023-04-15T17:13:47.651Z,9.70
2023-04-15T17:16:15.038Z,9.50
2023-04-15T17:18:42.668Z,16.35
2023-04-15T17:21:10.155Z,14.63
2023-04-15T17:23:37.688Z,8.77
2023-04-15T17:26:04.998Z,6.93
2023-04-15T17:28:32.608Z,6.90
2023-04-15T17:31:00.220Z,9.00
2023-04-15T17:34:01.724Z,6.20
2023-04-15T17:36:15.433Z,6.35
2023-04-15T17:38:43.125Z,7.55
2023-04-15T17:41:10.646Z,6.53
2023-04-15T17:43:38.504Z,8.15
2023-04-15T17:46:07.263Z,7.50
2023-04-15T17:48:35.463Z,8.90
2023-04-15T17:51:03.092Z,8.57
2023-04-15T17:53:31.150Z,8.93
2023-04-15T17:55:58.557Z,10.50
2023-04-15T17:58:28.762Z,8.93
2023-04-15T18:00:56.317Z,17.92
2023-04-15T18:03:24.048Z,18.60
2023-04-15T18:05:51.514Z,17.80
2023-04-15T18:08:19.287Z,31.13
2023-04-15T18:10:46.734Z,30.58
2023-04-15T18:13:14.552Z,13.70
2023-04-15T18:15:41.992Z,12.93
2023-04-15T18:18:10.353Z,9.05
2023-04-15T18:20:37.857Z,8.50
2023-04-15T18:23:05.438Z,8.52
2023-04-15T18:25:34.116Z,8.90
2023-04-15T18:28:02.425Z,8.07
2023-04-15T18:30:29.889Z,7.20
2023-04-15T18:32:58.222Z,8.73
2023-04-15T18:35:25.555Z,7.82
2023-04-15T18:37:53.540Z,6.75
2023-04-15T18:40:20.918Z,7.95
2023-04-15T18:42:48.766Z,11.82
2023-04-15T18:45:16.366Z,8.65
2023-04-15T18:47:44.684Z,9.95
2023-04-15T18:50:12.128Z,9.43
2023-04-15T18:52:40.394Z,7.88
2023-04-15T18:55:08.025Z,7.13
2023-04-15T18:57:36.063Z,8.13
2023-04-15T19:00:05.368Z,10.23
2023-04-15T19:02:33.191Z,8.85
2023-04-15T19:05:04.055Z,6.72
2023-04-15T19:07:32.003Z,6.97
2023-04-15T19:09:59.585Z,7.65
2023-04-15T19:12:27.412Z,11.45
2023-04-15T19:14:54.787Z,8.30
2023-04-15T19:17:22.482Z,10.73
2023-04-15T19:19:49.795Z,8.85
2023-04-15T19:22:17.486Z,9.88
2023-04-15T19:24:44.830Z,11.45
2023-04-15T19:27:12.397Z,10.18
2023-04-15T19:29:39.946Z,9.45
2023-04-15T19:32:07.521Z,11.85
2023-04-15T19:34:34.964Z,11.77
2023-04-15T19:37:02.573Z,10.50
2023-04-15T19:39:30.076Z,10.23
2023-04-15T19:41:58.890Z,11.07
2023-04-15T19:44:26.237Z,11.40
2023-04-15T19:46:53.888Z,11.38
2023-04-15T19:49:21.218Z,15.00
2023-04-15T19:51:52.652Z,16.13
2023-04-15T19:54:19.955Z,9.80
2023-04-15T19:56:47.921Z,13.55
2023-04-15T19:59:15.272Z,11.77
2023-04-15T20:01:42.898Z,10.68
2023-04-15T20:04:10.492Z,9.85
2023-04-15T20:06:38.182Z,9.85
2023-04-15T20:09:06.210Z,10.93
2023-04-15T20:12:45.923Z,10.57
2023-04-15T20:14:22.111Z,13.80
2023-04-15T20:16:49.762Z,10.77
2023-04-15T20:19:17.034Z,9.30
2023-04-15T20:21:45.378Z,13.05
2023-04-15T20:24:12.748Z,12.20
2023-04-15T20:26:40.399Z,16.00
2023-04-15T20:29:08.184Z,12.65
2023-04-15T20:31:36.438Z,13.18
2023-04-15T20:34:03.868Z,12.70
2023-04-15T20:36:31.845Z,11.70
2023-04-15T20:38:59.132Z,10.73
2023-04-15T20:41:26.792Z,11.00
2023-04-15T20:43:54.091Z,11.57
2023-04-15T20:46:21.893Z,8.80
2023-04-15T20:48:49.343Z,9.80
2023-04-15T20:51:16.979Z,11.15
2023-04-15T20:53:44.311Z,8.45
2023-04-15T20:56:12.066Z,10.15
2023-04-15T20:58:39.458Z,9.10
2023-04-15T21:01:07.232Z,8.80
2023-04-15T21:03:34.783Z,12.13
2023-04-15T21:06:02.497Z,12.25
2023-04-15T21:08:30.388Z,9.05
2023-04-15T21:10:58.275Z,11.90
2023-04-15T21:13:25.652Z,10.65
2023-04-15T21:15:54.266Z,8.30
2023-04-15T21:18:22.292Z,9.48
2023-04-15T21:20:57.468Z,12.18
2023-04-15T21:23:24.782Z,9.55
2023-04-15T21:25:52.625Z,10.88
2023-04-15T21:28:21.120Z,9.63
2023-04-15T21:30:49.449Z,10.50
2023-04-15T21:33:17.076Z,9.02
2023-04-15T21:35:44.764Z,9.85
2023-04-15T21:38:12.052Z,9.73
2023-04-15T21:40:40.841Z,9.95
2023-04-15T21:43:08.842Z,9.13
2023-04-15T21:45:38.587Z,11.90
2023-04-15T21:48:08.577Z,9.38
2023-04-15T21:50:36.988Z,11.60
2023-04-15T21:53:06.210Z,13.27
2023-04-15T21:55:33.885Z,9.77
2023-04-15T21:58:01.225Z,12.52
2023-04-15T22:00:29.039Z,11.60
2023-04-15T22:02:56.557Z,10.00
2023-04-15T22:05:24.321Z,12.10
2023-04-15T22:07:51.599Z,12.13
2023-04-15T22:10:20.762Z,12.55
2023-04-15T22:12:48.045Z,10.77
2023-04-15T22:15:16.835Z,11.35
2023-04-15T22:17:44.190Z,9.63
2023-04-15T22:20:11.907Z,9.55
2023-04-15T22:22:44.141Z,9.27
2023-04-15T22:25:13.073Z,9.02
2023-04-15T22:27:40.829Z,8.43
2023-04-15T22:30:09.019Z,7.03
2023-04-15T22:32:36.339Z,7.07
2023-04-15T22:35:06.298Z,8.52
2023-04-15T22:37:33.788Z,8.80
2023-04-15T22:40:02.123Z,9.10
2023-04-15T22:42:29.479Z,9.40
2023-04-15T22:44:57.092Z,9.07
2023-04-15T22:47:24.497Z,10.05
2023-04-15T22:49:52.134Z,8.77
2023-04-15T22:52:30.204Z,8.60
2023-04-15T22:54:58.707Z,8.50
2023-04-15T22:57:27.887Z,9.73
2023-04-15T22:59:55.996Z,10.90
2023-04-15T23:02:23.499Z,10.32
2023-04-15T23:04:51.313Z,11.02
2023-04-15T23:07:18.714Z,10.63
2023-04-15T23:09:46.315Z,10.82
2023-04-15T23:12:13.888Z,9.88
2023-04-15T23:14:41.452Z,13.57
2023-04-15T23:17:08.824Z,9.77
2023-04-15T23:19:36.383Z,11.13
2023-04-15T23:22:03.810Z,10.80
2023-04-15T23:24:31.363Z,11.98
2023-04-15T23:26:58.709Z,10.77
2023-04-15T23:29:26.556Z,11.52
2023-04-15T23:31:53.933Z,12.80
2023-04-15T23:34:21.573Z,12.27
2023-04-15T23:36:48.844Z,12.27
2023-04-15T23:39:16.445Z,13.80
2023-04-15T23:41:43.774Z,12.23
2023-04-15T23:44:11.453Z,12.32
2023-04-15T23:46:38.826Z,9.52
2023-04-15T23:49:06.416Z,10.30
2023-04-15T23:51:33.790Z,11.45
2023-04-15T23:54:01.410Z,11.82
2023-04-15T23:56:28.701Z,11.52
2023-04-15T23:58:56.278Z,13.90
